createdAt,value
2023-05-20T00:03:08.341Z,100.00
2023-05-20T00:08:11.158Z,100.00
2023-05-20T00:13:12.777Z,100.00
2023-05-20T00:18:14.328Z,100.00
2023-05-20T00:23:15.931Z,100.00
2023-05-20T00:28:17.548Z,100.00
2023-05-20T00:33:19.135Z,100.00
2023-05-20T00:38:20.801Z,100.00
2023-05-20T00:43:25.244Z,100.00
2023-05-20T00:48:36.728Z,100.00
2023-05-20T00:53:39.207Z,100.00
2023-05-20T00:58:41.018Z,100.00
2023-05-20T01:03:42.543Z,100.00
2023-05-20T01:08:44.166Z,100.00
2023-05-20T01:13:50.027Z,100.00
2023-05-20T01:18:55.987Z,100.00
2023-05-20T01:23:57.577Z,100.00
2023-05-20T01:29:04.305Z,100.00
2023-05-20T01:34:06.718Z,100.00
2023-05-20T01:39:08.952Z,100.00
2023-05-20T01:44:10.746Z,100.00
2023-05-20T01:49:12.306Z,100.00
2023-05-20T01:54:13.849Z,100.00
2023-05-20T01:59:15.452Z,100.00
2023-05-20T02:04:19.104Z,100.00
2023-05-20T02:09:20.796Z,100.00
2023-05-20T02:14:22.357Z,100.00
2023-05-20T02:19:24.145Z,100.00
2023-05-20T02:24:25.836Z,100.00
2023-05-20T02:29:27.440Z,100.00
2023-05-20T02:34:30.463Z,100.00
2023-05-20T02:39:32.166Z,100.00
2023-05-20T02:44:33.681Z,100.00
2023-05-20T02:49:35.285Z,100.00
2023-05-20T02:54:37.014Z,100.00
2023-05-20T02:59:38.512Z,100.00
2023-05-20T03:04:41.034Z,100.00
2023-05-20T03:09:42.646Z,100.00
2023-05-20T03:14:44.251Z,100.00
2023-05-20T03:19:46.111Z,100.00
2023-05-20T03:24:48.256Z,100.00
2023-05-20T03:29:49.884Z,100.00
2023-05-20T03:34:52.358Z,100.00
2023-05-20T03:39:53.933Z,100.00
2023-05-20T03:44:55.628Z,100.00
2023-05-20T03:49:57.235Z,100.00
2023-05-20T03:54:58.823Z,100.00
2023-05-20T04:00:02.245Z,100.00
2023-05-20T04:05:04.224Z,100.00
2023-05-20T04:10:06.317Z,100.00
2023-05-20T04:15:10.111Z,100.00
2023-05-20T04:20:12.057Z,100.00
2023-05-20T04:25:14.091Z,100.00
2023-05-20T04:30:18.518Z,100.00
2023-05-20T04:35:20.178Z,100.00
2023-05-20T04:40:22.972Z,100.00
2023-05-20T04:45:25.886Z,100.00
2023-05-20T04:50:28.526Z,100.00
2023-05-20T04:55:30.819Z,100.00
2023-05-20T05:00:32.373Z,100.00
2023-05-20T05:05:36.771Z,100.00
2023-05-20T05:10:38.288Z,100.00
2023-05-20T05:15:39.875Z,100.00
2023-05-20T05:20:41.639Z,100.00
2023-05-20T05:25:43.164Z,100.00
2023-05-20T05:30:44.737Z,100.00
2023-05-20T05:35:46.293Z,100.00
2023-05-20T05:40:47.833Z,100.00
2023-05-20T05:45:49.368Z,100.00
2023-05-20T05:50:50.938Z,100.00
2023-05-20T05:55:52.468Z,100.00
2023-05-20T06:00:54.842Z,100.00
2023-05-20T06:05:58.195Z,100.00
2023-05-20T06:10:59.734Z,100.00
2023-05-20T06:16:01.333Z,100.00
2023-05-20T06:21:03.025Z,100.00
2023-05-20T06:26:04.662Z,100.00
2023-05-20T06:31:06.630Z,100.00
2023-05-20T06:36:08.268Z,100.00
2023-05-20T06:41:09.827Z,100.00
2023-05-20T06:46:11.401Z,100.00
2023-05-20T06:51:12.990Z,98.62
2023-05-20T06:56:14.659Z,97.53
2023-05-20T07:01:18.356Z,97.33
2023-05-20T07:06:20.150Z,96.10
2023-05-20T07:11:21.874Z,95.77
2023-05-20T07:16:23.502Z,96.58
2023-05-20T07:21:25.111Z,97.78
2023-05-20T07:26:26.667Z,98.82
2023-05-20T07:31:28.181Z,99.98
2023-05-20T07:36:29.899Z,100.00
2023-05-20T07:41:31.469Z,99.65
2023-05-20T07:46:33.215Z,97.90
2023-05-20T07:51:34.865Z,95.41
2023-05-20T07:56:36.501Z,94.49
2023-05-20T08:01:41.043Z,93.58
2023-05-20T08:06:44.440Z,92.67
2023-05-20T08:11:47.484Z,92.19
2023-05-20T08:16:50.182Z,90.94
2023-05-20T08:21:53.403Z,90.45
2023-05-20T08:26:54.980Z,86.44
2023-05-20T08:31:57.018Z,84.40
2023-05-20T08:36:58.556Z,82.04
2023-05-20T08:42:00.348Z,80.74
2023-05-20T08:47:03.854Z,81.55
2023-05-20T08:52:08.488Z,82.31
2023-05-20T08:57:10.761Z,79.82
2023-05-20T09:02:13.860Z,78.52
2023-05-20T09:07:26.243Z,77.10
2023-05-20T09:12:27.918Z,77.80
2023-05-20T09:17:29.538Z,76.20
2023-05-20T09:22:31.127Z,73.77
2023-05-20T09:27:32.733Z,72.21
2023-05-20T09:32:34.392Z,70.49
2023-05-20T09:37:36.973Z,69.49
2023-05-20T09:42:42.847Z,68.95
2023-05-20T09:47:46.041Z,67.03
2023-05-20T09:52:49.828Z,67.16
2023-05-20T09:57:53.221Z,65.26
2023-05-20T10:02:55.026Z,64.23
2023-05-20T10:07:59.543Z,60.95
2023-05-20T10:13:03.739Z,50.29
2023-05-20T10:18:23.177Z,44.02
2023-05-20T10:23:28.947Z,43.51
2023-05-20T10:28:33.670Z,39.19
2023-05-20T10:33:45.059Z,37.55
2023-05-20T10:38:53.511Z,37.92
2023-05-20T10:44:03.193Z,37.81
2023-05-20T10:49:22.417Z,38.99
2023-05-20T10:54:26.287Z,44.48
2023-05-20T10:59:27.966Z,48.74
2023-05-20T11:04:30.934Z,50.02
2023-05-20T11:09:33.939Z,51.66
2023-05-20T11:14:35.725Z,53.25
2023-05-20T11:19:37.822Z,53.35
2023-05-20T11:24:39.410Z,53.62
2023-05-20T11:29:41.097Z,53.48
2023-05-20T11:34:42.853Z,54.47
2023-05-20T11:39:44.478Z,54.28
2023-05-20T11:44:46.453Z,55.00
2023-05-20T11:49:49.557Z,55.67
2023-05-20T11:54:53.446Z,55.02
2023-05-20T11:59:55.002Z,54.78
2023-05-20T12:04:58.175Z,54.25
2023-05-20T12:09:59.777Z,54.86
2023-05-20T12:15:01.429Z,55.17
2023-05-20T12:20:03.002Z,54.88
2023-05-20T12:25:05.035Z,54.59
2023-05-20T12:30:08.079Z,54.97
2023-05-20T12:35:10.440Z,54.73
2023-05-20T12:40:12.810Z,55.06
2023-05-20T12:45:14.405Z,55.39
2023-05-20T12:50:16.222Z,56.75
2023-05-20T12:55:17.751Z,55.15
2023-05-20T13:00:19.333Z,55.88
2023-05-20T13:05:22.107Z,54.77
2023-05-20T13:10:23.652Z,58.79
2023-05-20T13:15:25.779Z,61.17
2023-05-20T13:20:27.354Z,62.78
2023-05-20T13:25:29.268Z,63.33
2023-05-20T13:30:30.883Z,64.58
2023-05-20T13:35:32.469Z,65.17
2023-05-20T13:40:34.224Z,65.92
2023-05-20T13:45:36.001Z,64.14
2023-05-20T13:50:37.571Z,66.09
2023-05-20T13:55:42.060Z,64.43
2023-05-20T14:00:43.650Z,65.26
2023-05-20T14:05:46.023Z,66.11
2023-05-20T14:10:47.671Z,66.93
2023-05-20T14:15:54.578Z,67.60
2023-05-20T14:20:56.416Z,67.60
2023-05-20T14:25:58.042Z,67.79
2023-05-20T14:30:59.606Z,68.13
2023-05-20T14:36:01.215Z,68.30
2023-05-20T14:41:02.773Z,68.98
2023-05-20T14:46:04.569Z,69.15
2023-05-20T14:51:06.185Z,68.46
2023-05-20T14:56:07.756Z,69.88
2023-05-20T15:01:09.446Z,70.01
2023-05-20T15:06:11.438Z,70.38
2023-05-20T15:11:12.992Z,71.54
2023-05-20T15:16:14.897Z,71.97
2023-05-20T15:21:16.554Z,73.17
2023-05-20T15:26:18.199Z,72.73
2023-05-20T15:31:19.713Z,73.43
2023-05-20T15:36:21.714Z,73.56
2023-05-20T15:41:23.280Z,73.63
2023-05-20T15:46:26.311Z,74.18
2023-05-20T15:51:27.927Z,74.01
2023-05-20T15:56:31.249Z,72.83
2023-05-20T16:01:32.917Z,72.52
2023-05-20T16:06:34.526Z,72.18
2023-05-20T16:11:36.363Z,72.75
2023-05-20T16:16:38.181Z,73.65
2023-05-20T16:21:40.415Z,75.28
2023-05-20T16:26:41.967Z,75.81
2023-05-20T16:31:46.472Z,76.88
2023-05-20T16:36:48.226Z,77.59
2023-05-20T16:41:50.922Z,76.93
2023-05-20T16:46:54.039Z,77.95
2023-05-20T16:51:56.016Z,77.93
2023-05-20T16:56:57.691Z,78.46
2023-05-20T17:01:59.273Z,78.57
2023-05-20T17:07:01.680Z,79.30
2023-05-20T17:12:04.349Z,79.78
2023-05-20T17:17:06.041Z,79.72
2023-05-20T17:22:07.686Z,77.42
2023-05-20T17:27:09.502Z,78.42
2023-05-20T17:32:12.022Z,78.39
2023-05-20T17:37:13.570Z,78.48
2023-05-20T17:42:15.160Z,79.16
2023-05-20T17:47:16.838Z,79.31
2023-05-20T17:52:18.358Z,79.69
2023-05-20T17:57:20.298Z,80.33
2023-05-20T18:02:21.927Z,80.81
2023-05-20T18:07:23.646Z,81.16
2023-05-20T18:12:25.718Z,81.38
2023-05-20T18:17:27.320Z,81.71
2023-05-20T18:22:29.263Z,81.71
2023-05-20T18:27:32.094Z,81.66
2023-05-20T18:32:34.271Z,81.68
2023-05-20T18:37:36.376Z,82.46
2023-05-20T18:42:38.373Z,83.33
2023-05-20T18:47:40.382Z,83.80
2023-05-20T18:52:42.166Z,84.75
2023-05-20T18:57:43.779Z,85.74
2023-05-20T19:02:45.517Z,86.90
2023-05-20T19:07:47.143Z,87.94
2023-05-20T19:12:48.756Z,88.74
2023-05-20T19:17:50.706Z,89.83
2023-05-20T19:22:52.488Z,90.76
2023-05-20T19:27:54.166Z,91.79
2023-05-20T19:32:55.984Z,91.90
2023-05-20T19:37:57.746Z,92.43
2023-05-20T19:42:59.433Z,93.03
2023-05-20T19:48:01.356Z,93.78
2023-05-20T19:53:06.312Z,94.46
2023-05-20T19:58:08.015Z,94.91
2023-05-20T20:03:09.598Z,94.99
2023-05-20T20:08:11.291Z,95.14
2023-05-20T20:13:12.931Z,95.79
2023-05-20T20:18:14.645Z,96.22
2023-05-20T20:23:16.212Z,96.39
2023-05-20T20:28:18.166Z,96.60
2023-05-20T20:33:19.961Z,96.66
2023-05-20T20:38:21.530Z,97.06
2023-05-20T20:43:23.209Z,97.37
2023-05-20T20:48:29.848Z,97.95
2023-05-20T20:53:31.745Z,99.30
2023-05-20T20:58:34.965Z,99.96
2023-05-20T21:03:40.554Z,100.00
2023-05-20T21:08:42.618Z,100.00
2023-05-20T21:13:44.210Z,100.00
2023-05-20T21:18:45.836Z,100.00
2023-05-20T21:23:49.081Z,100.00
2023-05-20T21:28:51.838Z,100.00
2023-05-20T21:33:53.409Z,100.00
2023-05-20T21:38:55.105Z,100.00
2023-05-20T21:43:56.640Z,100.00
2023-05-20T21:48:58.259Z,100.00
2023-05-20T21:53:59.807Z,100.00
2023-05-20T21:59:01.348Z,100.00
2023-05-20T22:04:03.477Z,100.00
2023-05-20T22:09:05.845Z,100.00
2023-05-20T22:14:07.427Z,100.00
2023-05-20T22:19:10.036Z,100.00
2023-05-20T22:24:12.099Z,100.00
2023-05-20T22:29:13.601Z,100.00
2023-05-20T22:34:15.114Z,100.00
2023-05-20T22:39:16.652Z,100.00
2023-05-20T22:44:18.248Z,100.00
2023-05-20T22:49:19.935Z,100.00
2023-05-20T22:54:21.541Z,100.00
2023-05-20T22:59:23.782Z,100.00
2023-05-20T23:04:25.771Z,100.00
2023-05-20T23:09:27.339Z,100.00
2023-05-20T23:14:28.991Z,100.00
2023-05-20T23:19:30.537Z,100.00
2023-05-20T23:24:32.092Z,100.00
2023-05-20T23:29:33.639Z,100.00
2023-05-20T23:34:35.176Z,100.00
2023-05-20T23:39:36.949Z,100.00
2023-05-20T23:44:39.181Z,100.00
2023-05-20T23:49:41.627Z,100.00
2023-05-20T23:54:43.169Z,100.00
2023-05-20T23:59:44.930Z,100.00
